Time;durP1;ratioP1;P1;durP2;ratioP2;P2;SDS_P1;SDS_P2;PMS_P1;PMS_P2;Temp;Humidity;BMP_temperature;BMP_pressure;BME280_temperature;BME280_humidity;BME280_pressure;Samples;Min_cycle;Max_cycle;Signal;HPM_P1;HPM_P2
2022/10/05 00:00:54;;;;;;;2.50;2.30;;;10.80;53.20;;;;;;5030213;28;20491;-49
2022/10/05 00:03:21;;;;;;;4.93;3.20;;;10.70;47.40;;;;;;5031449;28;21019;-50
2022/10/05 00:05:49;;;;;;;4.30;2.80;;;10.70;47.60;;;;;;5029649;28;20463;-50
2022/10/05 00:08:18;;;;;;;6.17;3.60;;;10.70;44.60;;;;;;5030541;28;20486;-50
2022/10/05 00:10:46;;;;;;;8.27;2.97;;;10.70;42.80;;;;;;5030792;28;20463;-51
2022/10/05 00:13:14;;;;;;;2.80;2.60;;;10.70;44.90;;;;;;5030610;28;20494;-51
2022/10/05 00:15:42;;;;;;;6.40;3.40;;;10.70;45.40;;;;;;5030044;28;20888;-51
2022/10/05 00:18:15;;;;;;;3.80;2.60;;;10.70;46.90;;;;;;5031366;28;20564;-51
2022/10/05 00:20:43;;;;;;;4.90;3.00;;;10.80;48.60;;;;;;5031534;28;20467;-51
2022/10/05 00:23:16;;;;;;;4.03;2.80;;;10.70;50.80;;;;;;5030711;28;20498;-50
2022/10/05 00:25:42;;;;;;;4.70;2.80;;;10.70;50.90;;;;;;5026731;28;20917;-50
2022/10/05 00:28:17;;;;;;;3.30;3.00;;;10.70;50.50;;;;;;5028146;28;20491;-50
2022/10/05 00:30:45;;;;;;;5.93;3.23;;;10.70;51.70;;;;;;5032208;28;20493;-49
2022/10/05 00:33:11;;;;;;;4.57;3.10;;;10.70;52.60;;;;;;5029758;28;20577;-51
2022/10/05 00:35:38;;;;;;;6.40;3.00;;;10.70;52.90;;;;;;5031258;28;20487;-50
2022/10/05 00:38:05;;;;;;;5.93;3.13;;;10.60;48.40;;;;;;5028298;28;20483;-49
2022/10/05 00:40:44;;;;;;;6.70;3.67;;;10.60;50.90;;;;;;5028864;28;20493;-50
2022/10/05 00:43:34;;;;;;;2.73;2.53;;;10.60;44.70;;;;;;5029552;28;20498;-50
2022/10/05 00:46:08;;;;;;;6.83;2.60;;;10.50;40.70;;;;;;5022814;28;20544;-49
2022/10/05 00:48:42;;;;;;;3.37;3.00;;;10.50;37.70;;;;;;5032018;28;20498;-49
2022/10/05 00:51:21;;;;;;;9.27;3.00;;;10.50;36.50;;;;;;5032239;28;21005;-50
2022/10/05 00:54:00;;;;;;;3.83;3.40;;;10.50;42.70;;;;;;5029341;28;21081;-49
2022/10/05 00:56:48;;;;;;;4.33;2.63;;;10.50;42.70;;;;;;5031984;28;20486;-49
2022/10/05 00:59:25;;;;;;;6.03;3.40;;;10.50;44.60;;;;;;5030602;28;20578;-50
2022/10/05 01:01:59;;;;;;;3.17;2.77;;;10.50;46.60;;;;;;5029047;28;20471;-49
2022/10/05 01:04:35;;;;;;;4.20;3.40;;;10.50;47.40;;;;;;5028847;28;20522;-50
2022/10/05 01:07:14;;;;;;;2.93;2.30;;;10.50;48.90;;;;;;5029284;28;20496;-50
2022/10/05 01:09:48;;;;;;;5.63;3.50;;;10.50;47.00;;;;;;5024057;28;20475;-51
2022/10/05 01:12:22;;;;;;;4.30;2.63;;;10.60;48.10;;;;;;5030925;28;20516;-50
2022/10/05 01:14:55;;;;;;;3.27;2.27;;;10.60;48.20;;;;;;5032056;28;20491;-50
2022/10/05 01:17:29;;;;;;;3.57;3.10;;;10.50;49.30;;;;;;5031110;28;20926;-50
2022/10/05 01:20:11;;;;;;;4.37;3.40;;;10.50;45.20;;;;;;5029784;28;20485;-50
2022/10/05 01:22:56;;;;;;;3.90;3.10;;;10.50;46.20;;;;;;5029590;28;20457;-50
2022/10/05 01:25:30;;;;;;;6.60;2.87;;;10.50;43.00;;;;;;5027625;28;20510;-50
2022/10/05 01:28:02;;;;;;;2.97;2.77;;;10.50;45.40;;;;;;5029085;28;20498;-50
2022/10/05 01:30:34;;;;;;;5.17;3.13;;;10.40;46.30;;;;;;5029218;28;20498;-50
2022/10/05 01:33:10;;;;;;;6.70;2.97;;;10.40;43.70;;;;;;5027991;28;20498;-50
2022/10/05 01:35:47;;;;;;;5.33;2.90;;;10.40;42.80;;;;;;5028133;28;20490;-49
2022/10/05 01:38:24;;;;;;;7.70;3.50;;;10.40;39.30;;;;;;5029711;28;20933;-50
2022/10/05 01:41:00;;;;;;;5.90;3.40;;;10.30;39.30;;;;;;5024237;28;20597;-51
2022/10/05 01:43:34;;;;;;;7.10;3.40;;;10.30;33.70;;;;;;5029760;28;20507;-49
2022/10/05 01:46:06;;;;;;;2.80;2.60;;;10.20;37.10;;;;;;5030699;28;20473;-50
2022/10/05 01:48:43;;;;;;;10.03;2.70;;;10.20;34.70;;;;;;5023387;28;20459;-50
2022/10/05 01:51:18;;;;;;;7.30;4.17;;;10.10;35.10;;;;;;5025357;28;20555;-50
2022/10/05 01:53:53;;;;;;;6.23;2.60;;;10.10;35.80;;;;;;5026052;28;20514;-50
2022/10/05 01:56:28;;;;;;;4.10;2.73;;;10.00;36.80;;;;;;5030660;28;20565;-50
2022/10/05 01:59:06;;;;;;;6.03;3.77;;;9.90;27.80;;;;;;5028212;28;20577;-50
2022/10/05 02:01:38;;;;;;;3.93;2.97;;;9.90;27.60;;;;;;5029279;28;20546;-50
2022/10/05 02:04:11;;;;;;;3.50;3.20;;;9.80;91.00;;;;;;5026201;28;20518;-50
2022/10/05 02:06:43;;;;;;;5.30;2.40;;;9.70;93.90;;;;;;5030492;28;20570;-50
2022/10/05 02:09:16;;;;;;;3.43;3.07;;;9.70;89.50;;;;;;5029698;28;20483;-50
2022/10/05 02:11:47;;;;;;;5.20;2.93;;;9.70;99.90;;;;;;5025061;28;20570;-51
2022/10/05 02:14:21;;;;;;;3.00;1.97;;;9.60;99.90;;;;;;5026757;28;20482;-50
2022/10/05 02:16:49;;;;;;;5.50;2.70;;;9.60;99.90;;;;;;5030183;28;20557;-51
2022/10/05 02:19:21;;;;;;;2.63;2.53;;;9.60;99.90;;;;;;5027042;28;21024;-51
2022/10/05 02:21:53;;;;;;;2.87;2.63;;;9.60;99.90;;;;;;5029605;28;20542;-50
2022/10/05 02:24:23;;;;;;;3.70;2.70;;;9.50;99.90;;;;;;5028219;28;20566;-50
2022/10/05 02:26:51;;;;;;;3.77;2.37;;;9.50;99.90;;;;;;5030171;28;20541;-50
2022/10/05 02:29:23;;;;;;;5.90;3.40;;;9.50;99.90;;;;;;5027625;28;21036;-51
2022/10/05 02:31:56;;;;;;;3.80;3.20;;;9.50;99.90;;;;;;5029275;28;20465;-50
2022/10/05 02:34:25;;;;;;;9.53;2.77;;;9.40;99.90;;;;;;5029484;28;20518;-51
2022/10/05 02:37:10;;;;;;;3.40;3.10;;;9.40;99.90;;;;;;5029104;28;20463;-50
2022/10/05 02:39:46;;;;;;;4.53;2.83;;;9.40;99.90;;;;;;5029778;28;20486;-50
2022/10/05 02:42:21;;;;;;;4.07;2.53;;;9.40;99.90;;;;;;5028767;28;20541;-50
2022/10/05 02:44:57;;;;;;;6.40;3.57;;;9.30;99.90;;;;;;5026512;28;20513;-50
2022/10/05 02:47:33;;;;;;;3.13;2.80;;;9.30;99.90;;;;;;5024087;28;20466;-51
2022/10/05 02:50:07;;;;;;;3.97;2.60;;;9.30;99.90;;;;;;5030165;28;20469;-52
2022/10/05 02:52:45;;;;;;;8.27;3.97;;;9.30;99.90;;;;;;5029683;28;20509;-50
2022/10/05 02:55:18;;;;;;;7.77;4.10;;;9.30;99.90;;;;;;5025965;28;21087;-51
2022/10/05 02:57:52;;;;;;;3.00;2.80;;;9.40;99.90;;;;;;5030017;28;20501;-51
2022/10/05 03:00:22;;;;;;;4.73;3.30;;;9.40;99.90;;;;;;5026060;28;21051;-50
2022/10/05 03:02:59;;;;;;;5.47;3.43;;;9.40;99.90;;;;;;5029690;28;20505;-50
2022/10/05 03:05:31;;;;;;;9.43;3.30;;;9.40;99.90;;;;;;5024316;28;20605;-50
2022/10/05 03:08:03;;;;;;;4.80;3.17;;;9.40;99.90;;;;;;5022437;28;20545;-50
2022/10/05 03:10:36;;;;;;;4.23;3.20;;;9.50;99.90;;;;;;5027962;28;20546;-51
2022/10/05 03:13:09;;;;;;;4.63;2.90;;;9.50;99.90;;;;;;5027255;28;20520;-50
2022/10/05 03:15:50;;;;;;;4.90;3.80;;;9.50;99.90;;;;;;5027916;28;20554;-52
2022/10/05 03:18:28;;;;;;;4.53;3.27;;;9.50;99.90;;;;;;5029181;28;20481;-50
2022/10/05 03:21:02;;;;;;;6.53;3.93;;;9.60;99.90;;;;;;5028729;28;20554;-51
2022/10/05 03:23:37;;;;;;;3.93;3.53;;;9.60;99.90;;;;;;5027589;28;20573;-50
2022/10/05 03:26:20;;;;;;;3.37;3.10;;;9.70;99.90;;;;;;5029056;28;20553;-49
2022/10/05 03:28:57;;;;;;;11.50;3.23;;;9.70;99.90;;;;;;5029894;28;20577;-50
2022/10/05 03:31:35;;;;;;;4.17;3.00;;;9.80;99.90;;;;;;5032736;28;20553;-50
2022/10/05 03:34:10;;;;;;;4.03;3.40;;;9.80;99.90;;;;;;5026217;28;20571;-49
2022/10/05 03:36:40;;;;;;;6.30;3.63;;;9.90;99.90;;;;;;5029327;28;20461;-49
2022/10/05 03:39:14;;;;;;;4.53;2.90;;;9.80;99.90;;;;;;5033020;28;21087;-49
2022/10/05 03:41:46;;;;;;;5.23;3.13;;;9.90;99.90;;;;;;5032001;28;20458;-50
2022/10/05 03:44:30;;;;;;;6.03;3.47;;;9.90;99.90;;;;;;5028587;28;20565;-50
2022/10/05 03:47:08;;;;;;;3.60;3.30;;;10.00;99.90;;;;;;5024979;28;20622;-50
2022/10/05 03:50:02;;;;;;;3.13;2.83;;;10.00;99.90;;;;;;5031703;28;20458;-49
2022/10/05 03:52:35;;;;;;;3.53;2.90;;;10.00;99.90;;;;;;5029611;28;20899;-49
2022/10/05 03:55:09;;;;;;;5.77;3.30;;;10.10;99.90;;;;;;5029635;28;20565;-50
2022/10/05 03:57:38;;;;;;;4.50;3.50;;;10.10;99.90;;;;;;5030541;28;20911;-50
2022/10/05 04:00:11;;;;;;;5.90;2.90;;;10.10;93.30;;;;;;5031201;28;20573;-50
2022/10/05 04:02:45;;;;;;;4.80;2.50;;;10.10;21.60;;;;;;5032180;28;21251;-49
2022/10/05 04:05:15;;;;;;;6.27;3.50;;;10.20;24.50;;;;;;5031754;28;20871;-49
2022/10/05 04:07:46;;;;;;;2.80;2.70;;;10.20;27.50;;;;;;5031284;28;20548;-49
2022/10/05 04:10:17;;;;;;;4.43;2.80;;;10.20;28.50;;;;;;5030069;28;20459;-50
2022/10/05 04:12:50;;;;;;;3.23;2.87;;;10.20;31.80;;;;;;5027566;28;20467;-49
2022/10/05 04:15:23;;;;;;;7.10;3.20;;;10.30;34.30;;;;;;5032110;28;20566;-49
2022/10/05 04:17:56;;;;;;;3.63;2.90;;;10.30;36.40;;;;;;5032717;28;20459;-50
2022/10/05 04:20:26;;;;;;;4.37;3.20;;;10.30;37.30;;;;;;5030159;28;20546;-50
2022/10/05 04:23:01;;;;;;;4.93;3.20;;;10.30;39.30;;;;;;5028168;28;20482;-50
2022/10/05 04:25:34;;;;;;;2.93;2.73;;;10.30;41.20;;;;;;5029740;28;20912;-49
2022/10/05 04:28:07;;;;;;;5.73;4.30;;;10.40;41.00;;;;;;5032620;28;20553;-50
2022/10/05 04:30:40;;;;;;;6.17;2.90;;;10.40;45.80;;;;;;5031839;28;20545;-49
2022/10/05 04:33:11;;;;;;;5.30;3.20;;;10.40;45.90;;;;;;5030130;28;20542;-49
2022/10/05 04:35:58;;;;;;;5.77;3.80;;;10.40;47.70;;;;;;5029983;28;20469;-49
2022/10/05 04:38:43;;;;;;;6.53;3.90;;;10.50;51.00;;;;;;5023251;28;20601;-48
2022/10/05 04:41:22;;;;;;;3.87;3.17;;;10.50;55.90;;;;;;5025171;28;20574;-50
2022/10/05 04:44:01;;;;;;;4.90;3.20;;;10.60;63.50;;;;;;5024172;28;21090;-49
2022/10/05 04:46:41;;;;;;;7.07;3.40;;;10.60;65.30;;;;;;5025170;28;20558;-49
2022/10/05 04:49:20;;;;;;;6.90;3.20;;;10.60;65.60;;;;;;5026273;28;20542;-51
2022/10/05 04:51:53;;;;;;;5.10;3.40;;;10.60;70.70;;;;;;5024577;28;20587;-50
2022/10/05 04:54:33;;;;;;;3.13;2.80;;;10.60;71.30;;;;;;5028834;28;21063;-50
2022/10/05 04:57:05;;;;;;;11.00;3.70;;;10.60;72.40;;;;;;5025821;28;20553;-50
2022/10/05 05:00:03;;;;;;;5.27;4.40;;;10.50;70.60;;;;;;5028128;28;20569;-50
2022/10/05 05:02:41;;;;;;;8.53;5.83;;;10.50;71.10;;;;;;5026739;28;20456;-50
2022/10/05 05:05:27;;;;;;;9.87;5.07;;;10.50;69.20;;;;;;5031131;28;20560;-50
2022/10/05 05:08:06;;;;;;;4.87;4.07;;;10.50;64.50;;;;;;5026232;28;20553;-50
2022/10/05 05:10:47;;;;;;;6.60;4.53;;;10.40;56.30;;;;;;5030459;28;20454;-50
2022/10/05 05:13:27;;;;;;;8.10;4.97;;;10.40;52.10;;;;;;5033762;28;20906;-50
2022/10/05 05:16:02;;;;;;;5.00;4.00;;;10.40;52.00;;;;;;5029604;28;20573;-50
2022/10/05 05:18:51;;;;;;;5.17;3.67;;;10.40;50.80;;;;;;5027684;28;20605;-50
2022/10/05 05:21:32;;;;;;;5.93;4.00;;;10.30;51.90;;;;;;5025098;28;20637;-50
2022/10/05 05:24:07;;;;;;;4.40;3.47;;;10.30;51.40;;;;;;5028167;28;20566;-50
2022/10/05 05:26:49;;;;;;;6.87;4.03;;;10.30;52.20;;;;;;5026938;28;21055;-49
2022/10/05 05:29:24;;;;;;;3.50;3.30;;;10.30;52.90;;;;;;5028827;28;20494;-48
2022/10/05 05:31:57;;;;;;;4.93;3.67;;;10.30;52.40;;;;;;5028850;28;20582;-50
2022/10/05 05:34:39;;;;;;;3.70;3.40;;;10.30;51.30;;;;;;5032565;28;20561;-50
2022/10/05 05:37:17;;;;;;;7.07;3.40;;;10.40;48.70;;;;;;5030851;28;20569;-49
2022/10/05 05:39:55;;;;;;;3.60;3.30;;;10.30;50.80;;;;;;5024964;28;21070;-50
2022/10/05 05:42:33;;;;;;;7.73;4.00;;;10.40;50.60;;;;;;5030237;28;20523;-49
2022/10/05 05:45:10;;;;;;;6.33;2.70;;;10.40;50.30;;;;;;5030182;28;20605;-50
2022/10/05 05:47:40;;;;;;;4.47;2.97;;;10.40;49.30;;;;;;5024321;28;20553;-49
2022/10/05 05:50:33;;;;;;;3.33;3.00;;;10.40;50.70;;;;;;5026556;28;20553;-50
2022/10/05 05:53:06;;;;;;;4.53;4.13;;;10.40;50.10;;;;;;5023427;28;20509;-49
2022/10/05 05:55:35;;;;;;;4.63;3.90;;;10.40;50.90;;;;;;5029143;28;20554;-48
2022/10/05 05:58:08;;;;;;;5.67;3.53;;;10.50;52.30;;;;;;5031207;28;20546;-50
2022/10/05 06:00:42;;;;;;;6.10;3.13;;;10.50;52.20;;;;;;5028801;28;20589;-49
2022/10/05 06:03:14;;;;;;;4.10;3.70;;;10.50;54.40;;;;;;5026065;28;20554;-48
2022/10/05 06:05:45;;;;;;;7.97;3.73;;;10.50;56.60;;;;;;5023849;28;20559;-50
2022/10/05 06:08:19;;;;;;;4.90;2.97;;;10.60;61.70;;;;;;5027171;28;20463;-50
2022/10/05 06:10:51;;;;;;;3.03;2.77;;;10.60;63.80;;;;;;5022804;28;20454;-50
2022/10/05 06:13:22;;;;;;;3.00;2.80;;;10.60;65.80;;;;;;5028334;28;20965;-49
2022/10/05 06:15:54;;;;;;;6.23;2.50;;;10.60;63.80;;;;;;5028530;28;20558;-49
2022/10/05 06:18:22;;;;;;;4.87;2.77;;;10.60;64.40;;;;;;5022071;28;20467;-49
2022/10/05 06:20:54;;;;;;;6.20;3.47;;;10.60;65.90;;;;;;5021723;28;20601;-49
2022/10/05 06:23:28;;;;;;;11.40;3.50;;;10.70;67.00;;;;;;5020846;28;20549;-49
2022/10/05 06:26:23;;;;;;;8.40;2.93;;;10.70;71.10;;;;;;5022739;28;20584;-49
2022/10/05 06:28:56;;;;;;;5.20;3.30;;;10.70;74.20;;;;;;5018605;28;20900;-49
2022/10/05 06:31:34;;;;;;;10.53;4.00;;;10.80;75.40;;;;;;5027731;28;20490;-49
2022/10/05 06:34:08;;;;;;;4.03;3.60;;;10.80;78.40;;;;;;5021556;28;21273;-49
2022/10/05 06:36:40;;;;;;;4.10;3.57;;;10.90;80.70;;;;;;5027782;28;20554;-49
2022/10/05 06:39:27;;;;;;;5.97;3.30;;;10.90;84.30;;;;;;5029464;28;20494;-49
2022/10/05 06:42:12;;;;;;;5.07;3.80;;;11.00;84.80;;;;;;5021375;28;20566;-49
2022/10/05 06:44:47;;;;;;;6.37;3.47;;;11.00;84.50;;;;;;5020197;28;20486;-49
2022/10/05 06:47:26;;;;;;;4.43;3.00;;;11.10;86.40;;;;;;5011582;28;20470;-49
2022/10/05 06:50:00;;;;;;;7.50;3.80;;;11.10;87.60;;;;;;5021123;28;20589;-49
2022/10/05 06:52:37;;;;;;;3.93;2.90;;;11.20;90.20;;;;;;5024831;28;20509;-50
2022/10/05 06:55:18;;;;;;;3.97;3.30;;;11.20;91.90;;;;;;5019501;28;20577;-49
2022/10/05 06:57:55;;;;;;;4.53;3.10;;;11.30;95.00;;;;;;5020291;28;20458;-49
2022/10/05 07:00:24;;;;;;;4.43;3.87;;;11.30;99.80;;;;;;5020157;28;20474;-48
2022/10/05 07:02:57;;;;;;;2.57;2.30;;;11.40;99.90;;;;;;5023759;28;20454;-49
2022/10/05 07:05:50;;;;;;;4.10;3.10;;;11.40;99.90;;;;;;5025559;28;20573;-49
2022/10/05 07:08:22;;;;;;;6.07;3.33;;;11.50;99.90;;;;;;5023641;28;20569;-48
2022/10/05 07:11:04;;;;;;;3.43;3.03;;;11.60;99.90;;;;;;5025787;28;20526;-48
2022/10/05 07:14:04;;;;;;;8.10;3.07;;;11.70;99.90;;;;;;5024559;28;20566;-49
2022/10/05 07:16:39;;;;;;;4.60;3.00;;;11.80;99.90;;;;;;5023929;28;20455;-49
2022/10/05 07:19:17;;;;;;;4.17;3.30;;;11.90;99.90;;;;;;5025096;28;20556;-49
2022/10/05 07:21:50;;;;;;;7.07;2.60;;;12.00;99.90;;;;;;5030143;28;21223;-50
2022/10/05 07:24:28;;;;;;;6.03;3.30;;;12.10;99.90;;;;;;5026657;28;21079;-49
2022/10/05 07:27:06;;;;;;;4.20;2.93;;;12.20;99.90;;;;;;5023783;28;20513;-49
2022/10/05 07:29:39;;;;;;;5.80;2.73;;;12.20;99.90;;;;;;5034161;28;20566;-48
2022/10/05 07:32:21;;;;;;;4.53;3.43;;;12.30;99.90;;;;;;5032612;28;20545;-49
2022/10/05 07:34:53;;;;;;;7.33;2.70;;;12.40;99.90;;;;;;5030108;28;20573;-48
2022/10/05 07:40:14;;;;;;;3.63;3.23;;;12.60;99.90;;;;;;5029069;28;22750;-50
2022/10/05 07:42:58;;;;;;;9.03;3.43;;;12.60;99.90;;;;;;5024720;28;20522;-50
2022/10/05 07:45:29;;;;;;;3.80;2.87;;;12.70;99.90;;;;;;5025911;28;20565;-49
2022/10/05 07:47:57;;;;;;;3.37;3.03;;;12.70;99.90;;;;;;5031439;28;20494;-47
2022/10/05 07:50:28;;;;;;;3.27;2.77;;;12.80;99.90;;;;;;5027555;28;20455;-49
2022/10/05 07:52:57;;;;;;;3.03;2.60;;;12.80;99.90;;;;;;5028994;28;20553;-49
2022/10/05 07:55:26;;;;;;;7.40;3.03;;;12.90;99.90;;;;;;5024005;28;20487;-49
2022/10/05 07:58:05;;;;;;;5.30;3.00;;;13.00;99.90;;;;;;5024003;28;20554;-49
2022/10/05 08:00:49;;;;;;;3.43;3.13;;;13.00;99.90;;;;;;5029760;28;20486;-49
2022/10/05 08:03:26;;;;;;;3.73;2.70;;;13.00;99.90;;;;;;5032017;28;20461;-48
2022/10/05 08:05:54;;;;;;;13.60;3.67;;;13.10;99.90;;;;;;5028192;28;20557;-48
2022/10/05 08:08:28;;;;;;;5.17;2.70;;;13.10;99.90;;;;;;5019979;28;20558;-48
2022/10/05 08:11:01;;;;;;;8.30;3.17;;;13.10;99.90;;;;;;5022993;28;20550;-49
2022/10/05 08:13:34;;;;;;;3.43;2.43;;;13.20;99.90;;;;;;5021014;28;20567;-48
2022/10/05 08:16:04;;;;;;;4.93;2.57;;;13.20;99.90;;;;;;5021096;28;20902;-49
2022/10/05 08:18:45;;;;;;;7.43;3.17;;;13.20;99.90;;;;;;5023042;28;20471;-49
2022/10/05 08:21:15;;;;;;;2.90;2.60;;;13.20;99.90;;;;;;5029786;28;20548;-48
2022/10/05 08:23:47;;;;;;;3.00;2.73;;;13.30;99.90;;;;;;5031533;28;20557;-48
2022/10/05 08:26:21;;;;;;;4.27;2.50;;;13.30;99.90;;;;;;5030764;28;20550;-48
2022/10/05 08:29:00;;;;;;;4.03;2.70;;;13.30;99.90;;;;;;5030397;28;20462;-49
2022/10/05 08:31:32;;;;;;;13.83;4.50;;;13.40;99.90;;;;;;5029489;28;20545;-50
2022/10/05 08:34:15;;;;;;;7.30;3.13;;;13.50;99.90;;;;;;5029092;28;20517;-49
2022/10/05 08:36:52;;;;;;;5.90;2.80;;;13.50;99.90;;;;;;5026019;28;20459;-49
2022/10/05 08:39:20;;;;;;;3.17;2.63;;;13.60;99.90;;;;;;5033582;28;20466;-49
2022/10/05 08:42:13;;;;;;;3.27;2.40;;;13.70;99.90;;;;;;5029640;28;20549;-49
2022/10/05 08:45:17;;;;;;;4.70;2.90;;;13.80;99.90;;;;;;5002772;28;20565;-48
2022/10/05 08:48:09;;;;;;;8.53;2.97;;;13.90;99.90;;;;;;5024615;28;20458;-49
2022/10/05 08:50:59;;;;;;;4.67;2.60;;;14.00;99.90;;;;;;5029911;28;20547;-49
2022/10/05 08:53:51;;;;;;;4.10;2.67;;;14.10;99.90;;;;;;5030076;28;20569;-48
2022/10/05 08:56:30;;;;;;;6.53;3.27;;;14.10;99.90;;;;;;5006903;28;20462;-48
2022/10/05 08:59:10;;;;;;;3.50;3.00;;;14.10;99.90;;;;;;5028429;28;20520;-51
2022/10/05 09:01:55;;;;;;;2.67;2.00;;;14.20;99.90;;;;;;5018984;28;20573;-51
2022/10/05 09:04:42;;;;;;;3.80;2.80;;;14.20;99.90;;;;;;5029624;28;20565;-48
2022/10/05 09:07:21;;;;;;;5.87;2.70;;;14.30;99.90;;;;;;5030404;28;20546;-48
2022/10/05 09:10:30;;;;;;;8.43;2.60;;;14.30;99.90;;;;;;5029878;28;20462;-49
2022/10/05 09:13:25;;;;;;;3.77;2.30;;;14.30;99.90;;;;;;5024096;28;20597;-49
2022/10/05 09:16:20;;;;;;;3.57;2.30;;;14.40;99.90;;;;;;5023292;28;20547;-49
2022/10/05 09:19:15;;;;;;;3.20;2.70;;;14.40;99.90;;;;;;5030847;28;20516;-49
2022/10/05 09:21:43;;;;;;;5.23;2.63;;;14.40;99.90;;;;;;5023351;28;20565;-49
2022/10/05 09:24:23;;;;;;;6.87;3.10;;;14.50;99.90;;;;;;5029635;28;20585;-49
2022/10/05 09:27:03;;;;;;;6.40;3.03;;;14.60;99.90;;;;;;5023096;28;20963;-49
2022/10/05 09:30:01;;;;;;;6.70;3.17;;;14.60;99.90;;;;;;5025863;28;20569;-49
2022/10/05 09:32:46;;;;;;;4.57;2.70;;;14.80;99.90;;;;;;5027408;28;20555;-49
2022/10/05 09:35:34;;;;;;;4.83;2.20;;;14.80;99.90;;;;;;5027160;28;20571;-49
2022/10/05 09:38:16;;;;;;;3.57;2.77;;;14.90;99.90;;;;;;5026987;28;20550;-50
2022/10/05 09:41:22;;;;;;;7.63;2.90;;;14.90;99.90;;;;;;5022252;28;20549;-50
2022/10/05 09:44:20;;;;;;;9.20;3.37;;;15.00;99.90;;;;;;5024375;28;20569;-49
2022/10/05 09:47:02;;;;;;;3.80;2.90;;;15.00;99.90;;;;;;5025425;28;20987;-50
2022/10/05 09:49:54;;;;;;;3.50;3.20;;;15.00;99.90;;;;;;5028210;28;20498;-50
2022/10/05 09:52:42;;;;;;;11.00;2.83;;;15.00;99.90;;;;;;5027836;28;20545;-51
2022/10/05 09:55:46;;;;;;;3.53;2.63;;;15.00;99.90;;;;;;5016965;28;20590;-50
2022/10/05 09:58:50;;;;;;;10.27;2.67;;;15.10;99.90;;;;;;5019120;28;20549;-50
2022/10/05 10:01:26;;;;;;;2.53;2.30;;;15.10;99.90;;;;;;5020134;28;20565;-50
2022/10/05 10:04:19;;;;;;;8.07;2.83;;;15.30;99.90;;;;;;5030194;28;20561;-51
2022/10/05 10:07:13;;;;;;;10.13;2.83;;;15.30;99.90;;;;;;5021564;28;20822;-50
2022/10/05 10:10:13;;;;;;;7.10;3.13;;;15.50;99.90;;;;;;5021703;28;20553;-51
2022/10/05 10:12:57;;;;;;;3.70;2.90;;;15.70;99.90;;;;;;4972398;28;20569;-52
2022/10/05 10:16:03;;;;;;;3.40;2.60;;;15.90;94.70;;;;;;5024982;28;20490;-52
2022/10/05 10:18:57;;;;;;;6.77;2.60;;;16.10;99.90;;;;;;5025324;28;21042;-51
2022/10/05 10:22:10;;;;;;;6.57;3.00;;;16.30;27.90;;;;;;5029979;28;20557;-51
2022/10/05 10:25:01;;;;;;;5.37;3.20;;;16.50;20.30;;;;;;4956933;28;20485;-50
2022/10/05 10:27:47;;;;;;;3.23;2.83;;;16.40;21.90;;;;;;5027665;28;20498;-51
2022/10/05 10:30:40;;;;;;;6.07;2.83;;;16.50;27.60;;;;;;5020936;28;20531;-52
2022/10/05 10:33:30;;;;;;;5.97;3.00;;;16.50;22.00;;;;;;5019634;28;20547;-51
2022/10/05 10:36:02;;;;;;;4.07;2.73;;;16.50;25.00;;;;;;5025790;28;20557;-51
2022/10/05 10:38:33;;;;;;;4.73;3.10;;;16.50;24.10;;;;;;5028285;28;21011;-51
2022/10/05 10:41:38;;;;;;;4.63;3.10;;;16.50;87.60;;;;;;5028285;28;20581;-51
2022/10/05 10:44:47;;;;;;;5.60;3.17;;;16.50;30.80;;;;;;5007362;28;21079;-55
2022/10/05 10:47:39;;;;;;;14.90;3.50;;;16.50;32.70;;;;;;5021038;28;20533;-51
2022/10/05 10:50:42;;;;;;;10.57;2.80;;;16.60;33.10;;;;;;5028123;28;20458;-51
2022/10/05 10:53:38;;;;;;;13.33;3.27;;;16.80;29.20;;;;;;4991488;28;20458;-50
2022/10/05 10:56:21;;;;;;;4.20;3.20;;;16.90;33.00;;;;;;5020861;28;20559;-51
2022/10/05 10:59:22;;;;;;;4.80;2.80;;;17.10;44.40;;;;;;5023475;28;20557;-50
2022/10/05 11:02:07;;;;;;;5.10;3.40;;;17.10;49.00;;;;;;5018933;28;20487;-51
2022/10/05 11:05:00;;;;;;;6.50;3.47;;;17.30;51.10;;;;;;5022242;28;20584;-51
2022/10/05 11:07:52;;;;;;;6.27;3.17;;;17.40;48.40;;;;;;5022686;28;20454;-51
2022/10/05 11:10:52;;;;;;;3.47;3.03;;;17.50;45.70;;;;;;5021029;28;20975;-51
2022/10/05 11:13:39;;;;;;;6.40;3.37;;;17.60;44.50;;;;;;5031356;28;20521;-52
2022/10/05 11:16:46;;;;;;;10.27;3.10;;;17.70;33.90;;;;;;5021573;28;20463;-51
2022/10/05 11:19:40;;;;;;;4.03;2.80;;;17.80;54.40;;;;;;5023031;28;20562;-51
2022/10/05 11:22:22;;;;;;;8.53;3.17;;;17.80;57.70;;;;;;5026103;28;20561;-51
2022/10/05 11:25:10;;;;;;;3.17;2.83;;;17.60;53.60;;;;;;5027595;28;20483;-51
2022/10/05 11:28:03;;;;;;;4.83;2.73;;;17.60;53.50;;;;;;5029879;28;20545;-51
2022/10/05 11:31:02;;;;;;;5.90;3.17;;;17.70;40.60;;;;;;5024223;28;20545;-51
2022/10/05 11:33:58;;;;;;;3.67;3.37;;;17.80;46.90;;;;;;5029312;28;20894;-51
2022/10/05 11:36:57;;;;;;;4.03;3.17;;;18.00;61.60;;;;;;5026184;28;21043;-51
2022/10/05 11:39:35;;;;;;;6.00;3.23;;;18.10;58.00;;;;;;5024409;28;20455;-51
2022/10/05 11:42:39;;;;;;;3.10;2.83;;;18.20;58.80;;;;;;5026791;28;20888;-52
2022/10/05 11:45:34;;;;;;;3.10;2.80;;;18.30;59.70;;;;;;5026552;28;20532;-51
2022/10/05 11:48:21;;;;;;;3.37;3.07;;;18.20;63.90;;;;;;5025417;28;20465;-52
2022/10/05 11:51:01;;;;;;;4.70;2.80;;;18.10;56.10;;;;;;5031809;28;22681;-52
2022/10/05 11:53:37;;;;;;;3.23;2.93;;;17.90;54.30;;;;;;5031829;28;20537;-51
2022/10/05 11:56:10;;;;;;;4.70;2.80;;;17.80;48.60;;;;;;5030610;28;20462;-51
2022/10/05 11:58:43;;;;;;;4.97;2.73;;;17.80;45.40;;;;;;5031767;28;20557;-51
2022/10/05 12:01:19;;;;;;;8.83;2.93;;;17.80;48.00;;;;;;5024325;28;20571;-52
2022/10/05 12:03:56;;;;;;;6.63;2.93;;;18.00;39.90;;;;;;5023842;28;20589;-51
2022/10/05 12:06:35;;;;;;;6.20;2.53;;;18.10;50.50;;;;;;5027831;28;20545;-51
2022/10/05 12:09:22;;;;;;;4.23;2.73;;;18.10;55.40;;;;;;5025112;28;20886;-51
2022/10/05 12:11:59;;;;;;;4.03;2.73;;;18.20;49.70;;;;;;5023932;28;21222;-51
2022/10/05 12:14:37;;;;;;;15.03;2.97;;;18.30;63.60;;;;;;5030018;28;20923;-51
2022/10/05 12:17:12;;;;;;;3.07;2.80;;;18.40;64.20;;;;;;5030462;28;20546;-52
2022/10/05 12:19:43;;;;;;;6.20;2.73;;;18.40;60.60;;;;;;5030391;28;20486;-51
2022/10/05 12:22:15;;;;;;;4.47;2.87;;;18.50;67.70;;;;;;5030994;28;20574;-51
2022/10/05 12:25:05;;;;;;;6.47;2.97;;;18.60;63.80;;;;;;5024584;28;20486;-51
2022/10/05 12:27:37;;;;;;;10.23;3.17;;;18.70;59.40;;;;;;5030482;28;20843;-52
2022/10/05 12:30:13;;;;;;;5.30;2.70;;;18.80;87.60;;;;;;5031711;28;20569;-52
2022/10/05 12:32:48;;;;;;;5.17;2.63;;;18.70;94.30;;;;;;5031970;28;20541;-50
2022/10/05 12:35:22;;;;;;;2.50;2.40;;;18.70;93.30;;;;;;5027951;28;20514;-51
2022/10/05 12:37:55;;;;;;;3.57;2.80;;;18.80;88.40;;;;;;5031424;28;20948;-51
2022/10/05 12:40:30;;;;;;;11.03;3.03;;;18.80;87.80;;;;;;5028131;28;20554;-52
2022/10/05 12:43:04;;;;;;;6.80;3.03;;;18.90;94.40;;;;;;5027768;28;20549;-52
2022/10/05 12:45:42;;;;;;;3.90;2.87;;;18.90;92.90;;;;;;5030493;28;20477;-51
2022/10/05 12:48:29;;;;;;;5.37;3.37;;;19.00;86.20;;;;;;5033558;28;20533;-51
2022/10/05 12:51:03;;;;;;;2.80;2.50;;;19.10;87.60;;;;;;5029396;28;21143;-51
2022/10/05 12:53:47;;;;;;;5.53;2.37;;;19.20;94.00;;;;;;5030226;28;20570;-51
2022/10/05 12:56:23;;;;;;;2.87;2.60;;;19.10;86.70;;;;;;5029959;28;20430;-51
2022/10/05 12:58:57;;;;;;;5.40;3.03;;;19.10;91.60;;;;;;5021820;28;20553;-51
2022/10/05 13:01:34;;;;;;;4.10;2.90;;;19.20;82.80;;;;;;5024818;28;20575;-52
2022/10/05 13:04:11;;;;;;;5.60;3.30;;;19.20;89.60;;;;;;5028620;28;20581;-52
2022/10/05 13:06:45;;;;;;;3.13;2.90;;;19.30;86.90;;;;;;5027291;28;20458;-52
2022/10/05 13:09:14;;;;;;;4.87;3.07;;;19.40;86.60;;;;;;5028102;28;20526;-53
2022/10/05 13:11:47;;;;;;;3.50;2.60;;;19.60;90.50;;;;;;5026441;28;20490;-52
2022/10/05 13:14:23;;;;;;;6.60;3.93;;;19.90;80.60;;;;;;5031181;28;20478;-51
2022/10/05 13:16:59;;;;;;;3.27;2.97;;;19.80;88.00;;;;;;5031829;28;20883;-52
2022/10/05 13:19:33;;;;;;;4.73;2.67;;;19.90;99.90;;;;;;5031065;28;20975;-53
2022/10/05 13:22:23;;;;;;;4.20;2.90;;;20.00;99.90;;;;;;5028357;28;20586;-53
2022/10/05 13:25:00;;;;;;;4.20;2.90;;;20.00;99.90;;;;;;5025805;28;20565;-52
2022/10/05 13:27:31;;;;;;;5.10;2.67;;;19.90;99.90;;;;;;5029891;28;20497;-53
2022/10/05 13:30:02;;;;;;;4.20;3.10;;;19.90;99.90;;;;;;5030494;28;20879;-53
2022/10/05 13:32:34;;;;;;;2.80;2.60;;;20.10;99.90;;;;;;5027930;28;21060;-52
2022/10/05 13:35:18;;;;;;;3.50;2.50;;;20.00;99.90;;;;;;5024131;28;20506;-51
2022/10/05 13:37:58;;;;;;;7.13;2.87;;;20.00;99.90;;;;;;5024092;28;20848;-52
2022/10/05 13:40:34;;;;;;;6.67;2.70;;;19.90;99.90;;;;;;5021940;28;20463;-51
2022/10/05 13:43:13;;;;;;;5.87;3.00;;;20.00;99.90;;;;;;5024985;28;20482;-52
2022/10/05 13:45:46;;;;;;;2.40;2.20;;;20.40;99.90;;;;;;5030449;28;21166;-53
2022/10/05 13:48:26;;;;;;;2.37;2.20;;;20.30;99.90;;;;;;5031569;28;20546;-52
2022/10/05 13:51:02;;;;;;;4.57;2.43;;;20.20;99.90;;;;;;5022091;28;20557;-53